createdAt,value
2023-01-11T00:00:29.556Z,21.85
2023-01-11T00:03:01.371Z,22.83
2023-01-11T00:07:55.387Z,22.60
2023-01-11T00:10:22.496Z,23.52
2023-01-11T00:12:49.330Z,24.65
2023-01-11T00:15:16.799Z,26.55
2023-01-11T00:17:43.652Z,26.52
2023-01-11T00:20:11.234Z,26.80
2023-01-11T00:22:38.551Z,25.15
2023-01-11T00:25:05.895Z,25.70
2023-01-11T00:27:32.780Z,24.75
2023-01-11T00:30:00.053Z,22.88
2023-01-11T00:32:27.480Z,20.35
2023-01-11T00:34:54.579Z,21.67
2023-01-11T00:37:21.744Z,21.20
2023-01-11T00:39:48.730Z,20.08
2023-01-11T00:42:34.042Z,20.95
2023-01-11T00:45:19.766Z,23.50
2023-01-11T00:48:00.328Z,25.95
2023-01-11T00:50:29.650Z,22.73
2023-01-11T00:52:57.719Z,21.20
2023-01-11T00:55:25.350Z,20.85
2023-01-11T00:57:52.606Z,24.33
2023-01-11T01:00:20.907Z,22.63
2023-01-11T01:02:48.314Z,21.33
2023-01-11T01:05:15.852Z,19.55
2023-01-11T01:07:43.301Z,19.10
2023-01-11T01:10:11.342Z,19.80
2023-01-11T01:12:57.277Z,19.75
2023-01-11T01:15:24.228Z,22.27
2023-01-11T01:17:55.053Z,21.25
2023-01-11T01:20:23.399Z,20.43
2023-01-11T01:22:50.539Z,19.52
2023-01-11T01:25:17.792Z,21.73
2023-01-11T01:27:44.616Z,21.83
2023-01-11T01:30:12.229Z,22.15
2023-01-11T01:32:39.803Z,21.58
2023-01-11T01:35:07.496Z,21.10
2023-01-11T01:37:34.343Z,21.65
2023-01-11T01:40:01.257Z,21.08
2023-01-11T01:42:28.186Z,22.42
2023-01-11T01:45:02.647Z,23.38
2023-01-11T01:47:53.428Z,23.50
2023-01-11T01:50:24.833Z,23.77
2023-01-11T01:52:54.150Z,22.30
2023-01-11T01:55:26.464Z,21.77
2023-01-11T01:57:55.020Z,21.45
2023-01-11T02:00:22.017Z,23.77
2023-01-11T02:02:49.240Z,24.20
2023-01-11T02:05:16.502Z,21.58
2023-01-11T02:07:44.537Z,21.33
2023-01-11T02:10:15.227Z,22.25
2023-01-11T02:13:03.330Z,22.60
2023-01-11T02:15:30.260Z,23.10
2023-01-11T02:17:57.430Z,21.90
2023-01-11T02:20:42.666Z,22.40
2023-01-11T02:23:27.574Z,21.38
2023-01-11T02:26:15.928Z,21.17
2023-01-11T02:29:01.451Z,21.92
2023-01-11T02:31:30.040Z,21.92
2023-01-11T02:34:25.622Z,21.95
2023-01-11T02:37:11.318Z,21.55
2023-01-11T02:39:48.571Z,22.38
2023-01-11T02:42:50.899Z,22.30
2023-01-11T02:48:16.389Z,19.48
2023-01-11T02:51:08.131Z,18.95
2023-01-11T02:53:40.133Z,19.05
2023-01-11T02:56:11.880Z,18.45
2023-01-11T02:58:41.682Z,18.27
2023-01-11T03:01:09.797Z,17.52
2023-01-11T03:03:36.698Z,16.70
2023-01-11T03:06:17.518Z,17.10
2023-01-11T03:09:18.863Z,18.92
2023-01-11T03:12:41.711Z,17.77
2023-01-11T03:15:41.890Z,17.08
2023-01-11T03:18:38.286Z,16.08
2023-01-11T03:21:26.654Z,16.75
2023-01-11T03:24:16.091Z,15.85
2023-01-11T03:27:01.227Z,16.08
2023-01-11T03:29:43.994Z,15.57
2023-01-11T03:32:29.722Z,15.88
2023-01-11T03:35:27.412Z,15.50
2023-01-11T03:37:55.807Z,15.07
2023-01-11T03:40:28.104Z,16.50
2023-01-11T03:43:16.660Z,16.52
2023-01-11T03:46:00.269Z,15.77
2023-01-11T03:48:53.699Z,14.35
2023-01-11T03:51:30.015Z,14.73
2023-01-11T03:54:00.028Z,14.68
2023-01-11T03:56:36.900Z,14.68
2023-01-11T03:59:04.008Z,14.75
2023-01-11T04:01:31.187Z,15.85
2023-01-11T04:03:58.223Z,13.48
2023-01-11T04:06:26.007Z,14.52
2023-01-11T04:08:52.822Z,14.07
2023-01-11T04:11:19.752Z,12.45
2023-01-11T04:13:46.650Z,11.55
2023-01-11T04:16:13.467Z,12.55
2023-01-11T04:18:41.248Z,12.93
2023-01-11T04:21:08.072Z,14.02
2023-01-11T04:23:35.921Z,13.40
2023-01-11T04:26:02.675Z,13.50
2023-01-11T04:28:29.727Z,14.20
2023-01-11T04:30:56.635Z,12.57
2023-01-11T04:33:23.731Z,14.68
2023-01-11T04:35:50.534Z,12.02
2023-01-11T04:38:17.651Z,12.85
2023-01-11T04:40:44.831Z,12.95
2023-01-11T04:43:11.818Z,12.68
2023-01-11T04:45:38.757Z,13.02
2023-01-11T04:48:05.926Z,12.57
2023-01-11T04:50:33.131Z,13.27
2023-01-11T04:53:00.695Z,13.38
2023-01-11T04:55:27.663Z,12.30
2023-01-11T04:57:54.463Z,10.65
2023-01-11T05:00:21.601Z,11.90
2023-01-11T05:02:48.422Z,10.60
2023-01-11T05:05:15.272Z,11.00
2023-01-11T05:07:42.120Z,10.52
2023-01-11T05:10:09.562Z,10.35
2023-01-11T05:12:36.561Z,10.75
2023-01-11T05:15:03.890Z,8.88
2023-01-11T05:17:30.842Z,9.23
2023-01-11T05:19:57.670Z,8.52
2023-01-11T05:22:24.702Z,8.52
2023-01-11T05:24:51.555Z,8.48
2023-01-11T05:27:18.521Z,8.32
2023-01-11T05:29:45.460Z,7.45
2023-01-11T05:32:13.423Z,8.25
2023-01-11T05:34:40.252Z,7.70
2023-01-11T05:37:07.323Z,8.25
2023-01-11T05:39:34.318Z,7.88
2023-01-11T05:42:01.180Z,5.85
2023-01-11T05:44:46.798Z,3.55
2023-01-11T05:47:13.735Z,6.93
2023-01-11T05:49:40.595Z,7.10
2023-01-11T05:52:07.581Z,7.35
2023-01-11T05:54:34.453Z,7.85
2023-01-11T05:57:01.510Z,7.03
2023-01-11T05:59:30.487Z,7.50
2023-01-11T06:01:59.313Z,7.50
2023-01-11T06:04:27.663Z,7.13
2023-01-11T06:06:54.956Z,6.28
2023-01-11T06:09:22.038Z,5.47
2023-01-11T06:11:50.771Z,7.75
2023-01-11T06:14:17.931Z,7.22
2023-01-11T06:16:45.133Z,6.60
2023-01-11T06:19:12.226Z,7.05
2023-01-11T06:21:39.305Z,7.85
2023-01-11T06:24:07.824Z,7.40
2023-01-11T06:26:34.979Z,7.68
2023-01-11T06:29:02.033Z,5.07
2023-01-11T06:31:29.145Z,3.70
2023-01-11T06:33:56.108Z,5.63
2023-01-11T06:36:23.218Z,6.30
2023-01-11T06:38:50.218Z,5.93
2023-01-11T06:41:17.274Z,6.10
2023-01-11T06:43:44.297Z,6.05
2023-01-11T06:46:12.849Z,6.20
2023-01-11T06:48:40.036Z,8.25
2023-01-11T06:51:06.967Z,6.28
2023-01-11T06:53:34.131Z,5.50
2023-01-11T06:56:01.041Z,6.43
2023-01-11T06:58:28.473Z,6.85
2023-01-11T07:00:57.330Z,6.43
2023-01-11T07:03:26.060Z,6.50
2023-01-11T07:05:54.158Z,6.68
2023-01-11T07:08:21.232Z,6.32
2023-01-11T07:10:48.488Z,5.13
2023-01-11T07:13:17.364Z,5.97
2023-01-11T07:15:45.622Z,6.68
2023-01-11T07:18:12.950Z,6.57
2023-01-11T07:20:41.203Z,6.65
2023-01-11T07:23:08.401Z,6.63
2023-01-11T07:25:35.721Z,6.93
2023-01-11T07:28:05.693Z,7.07
2023-01-11T07:30:47.789Z,7.82
2023-01-11T07:33:21.502Z,7.10
2023-01-11T07:35:49.660Z,7.72
2023-01-11T07:38:17.194Z,7.88
2023-01-11T07:40:44.272Z,8.88
2023-01-11T07:43:15.393Z,10.35
2023-01-11T07:45:46.932Z,6.90
2023-01-11T07:48:15.438Z,7.78
2023-01-11T07:50:44.883Z,6.43
2023-01-11T07:53:13.004Z,5.43
2023-01-11T07:55:41.704Z,6.72
2023-01-11T07:58:13.213Z,7.82
2023-01-11T08:00:41.318Z,5.75
2023-01-11T08:03:09.055Z,6.78
2023-01-11T08:05:36.177Z,7.03
2023-01-11T08:08:03.467Z,6.25
2023-01-11T08:10:30.524Z,6.55
2023-01-11T08:13:16.406Z,6.95
2023-01-11T08:15:43.722Z,7.05
2023-01-11T08:18:13.251Z,6.15
2023-01-11T08:20:41.035Z,6.38
2023-01-11T08:23:10.175Z,6.60
2023-01-11T08:25:37.667Z,8.80
2023-01-11T08:28:06.717Z,7.45
2023-01-11T08:30:33.875Z,10.05
2023-01-11T08:33:01.585Z,8.05
2023-01-11T08:35:28.690Z,8.52
2023-01-11T08:37:55.634Z,9.80
2023-01-11T08:40:24.209Z,8.80
2023-01-11T08:42:57.761Z,7.95
2023-01-11T08:45:25.457Z,10.07
2023-01-11T08:47:52.639Z,10.00
2023-01-11T08:50:20.658Z,8.15
2023-01-11T08:52:51.219Z,7.93
2023-01-11T08:55:19.483Z,15.75
2023-01-11T08:57:47.109Z,26.83
2023-01-11T09:00:14.882Z,12.85
2023-01-11T09:02:42.240Z,11.77
2023-01-11T09:05:10.013Z,8.85
2023-01-11T09:07:37.744Z,8.25
2023-01-11T09:10:05.239Z,7.57
2023-01-11T09:12:32.970Z,7.10
2023-01-11T09:15:00.338Z,7.47
2023-01-11T09:17:27.518Z,10.52
2023-01-11T09:19:54.647Z,8.55
2023-01-11T09:22:21.722Z,6.75
2023-01-11T09:24:48.951Z,7.55
2023-01-11T09:27:16.691Z,6.28
2023-01-11T09:29:44.130Z,5.60
2023-01-11T09:32:11.299Z,6.70
2023-01-11T09:34:39.528Z,10.43
2023-01-11T09:37:07.271Z,6.03
2023-01-11T09:39:35.408Z,5.63
2023-01-11T09:42:08.982Z,6.80
2023-01-11T09:44:37.406Z,5.05
2023-01-11T09:47:26.355Z,11.90
2023-01-11T09:49:57.738Z,13.20
2023-01-11T09:52:41.391Z,16.40
2023-01-11T09:55:23.147Z,10.27
2023-01-11T09:58:00.670Z,5.70
2023-01-11T10:00:49.555Z,7.05
2023-01-11T10:03:43.975Z,6.15
2023-01-11T10:06:17.592Z,5.72
2023-01-11T10:18:28.495Z,8.43
2023-01-11T10:18:29.107Z,12.18
2023-01-11T10:20:43.354Z,12.82
2023-01-11T10:23:19.022Z,8.80
2023-01-11T10:25:53.251Z,7.25
2023-01-11T10:28:35.468Z,4.68
2023-01-11T10:31:29.490Z,17.50
2023-01-11T10:34:04.981Z,6.63
2023-01-11T10:37:12.226Z,10.00
2023-01-11T10:40:35.159Z,5.75
2023-01-11T10:43:16.984Z,5.85
2023-01-11T10:46:17.321Z,4.85
2023-01-11T10:48:47.458Z,6.45
2023-01-11T10:51:37.764Z,5.28
2023-01-11T10:57:01.708Z,5.97
2023-01-11T10:59:35.300Z,6.30
2023-01-11T11:02:13.817Z,6.75
2023-01-11T11:04:56.245Z,6.05
2023-01-11T11:07:32.968Z,5.75
2023-01-11T11:10:23.225Z,6.10
2023-01-11T11:13:13.857Z,5.82
2023-01-11T11:15:50.777Z,5.68
2023-01-11T11:18:17.920Z,6.22
2023-01-11T11:20:46.577Z,6.43
2023-01-11T11:23:22.017Z,6.15
2023-01-11T11:25:54.631Z,6.03
2023-01-11T11:28:32.734Z,6.82
2023-01-11T11:31:09.910Z,6.70
2023-01-11T11:33:40.107Z,6.82
2023-01-11T11:36:09.137Z,6.40
2023-01-11T11:38:38.939Z,5.57
2023-01-11T11:41:11.515Z,7.28
2023-01-11T11:43:43.674Z,6.05
2023-01-11T11:46:20.119Z,5.82
2023-01-11T11:49:13.299Z,5.22
2023-01-11T11:51:41.581Z,6.07
2023-01-11T11:54:28.954Z,5.95
2023-01-11T11:56:57.346Z,6.57
2023-01-11T11:59:30.538Z,5.72
2023-01-11T12:02:02.649Z,4.80
2023-01-11T12:04:50.003Z,5.68
2023-01-11T12:07:22.598Z,5.45
2023-01-11T12:10:22.873Z,5.60
2023-01-11T12:12:58.450Z,5.75
2023-01-11T12:15:27.322Z,5.35
2023-01-11T12:17:55.277Z,6.50
2023-01-11T12:20:22.180Z,11.88
2023-01-11T12:22:50.305Z,16.23
2023-01-11T12:25:17.127Z,20.40
2023-01-11T12:27:58.619Z,19.85
2023-01-11T12:30:45.553Z,7.25
2023-01-11T12:33:34.157Z,6.03
2023-01-11T12:36:06.274Z,7.50
2023-01-11T12:39:05.343Z,10.40
2023-01-11T12:42:16.369Z,7.03
2023-01-11T12:44:49.354Z,5.50
2023-01-11T12:47:40.826Z,5.80
2023-01-11T12:50:49.230Z,8.32
2023-01-11T12:53:36.132Z,8.43
2023-01-11T12:56:28.664Z,5.28
2023-01-11T12:59:03.204Z,8.18
2023-01-11T13:01:55.337Z,5.70
2023-01-11T13:07:29.561Z,6.20
2023-01-11T13:10:34.111Z,6.97
2023-01-11T13:13:20.562Z,6.10
2023-01-11T13:15:56.169Z,6.20
2023-01-11T13:18:35.186Z,6.10
2023-01-11T13:21:27.417Z,5.97
2023-01-11T13:23:58.038Z,5.85
2023-01-11T13:26:28.539Z,5.90
2023-01-11T13:29:04.166Z,5.72
2023-01-11T13:31:34.172Z,7.10
2023-01-11T13:34:05.720Z,5.68
2023-01-11T13:36:41.347Z,6.40
2023-01-11T13:39:23.828Z,5.75
2023-01-11T13:41:53.747Z,5.75
2023-01-11T13:44:32.735Z,6.07
2023-01-11T13:47:36.558Z,6.07
2023-01-11T13:50:16.215Z,5.28
2023-01-11T13:52:57.821Z,6.40
2023-01-11T13:55:51.807Z,5.88
2023-01-11T13:58:25.758Z,6.18
2023-01-11T14:01:03.524Z,5.43
2023-01-11T14:03:36.659Z,5.60
2023-01-11T14:06:23.279Z,6.70
2023-01-11T14:09:21.422Z,5.93
2023-01-11T14:12:25.886Z,6.93
2023-01-11T14:15:20.567Z,6.57
2023-01-11T14:18:00.366Z,6.95
2023-01-11T14:20:47.465Z,7.47
2023-01-11T14:23:17.798Z,6.75
2023-01-11T14:26:06.448Z,9.15
2023-01-11T14:29:05.883Z,7.03
2023-01-11T14:31:59.296Z,7.78
2023-01-11T14:34:49.005Z,7.70
2023-01-11T14:37:23.616Z,13.38
2023-01-11T14:40:06.266Z,11.38
2023-01-11T14:42:36.111Z,11.55
2023-01-11T14:45:27.788Z,8.95
2023-01-11T14:48:35.722Z,9.43
2023-01-11T14:51:09.616Z,20.23
2023-01-11T14:54:10.880Z,8.20
2023-01-11T14:56:43.955Z,9.13
2023-01-11T14:59:41.627Z,9.13
2023-01-11T15:02:11.592Z,13.85
2023-01-11T15:04:58.486Z,12.88
2023-01-11T15:07:37.559Z,10.20
2023-01-11T15:10:24.469Z,10.15
2023-01-11T15:12:56.109Z,10.43
2023-01-11T15:15:44.259Z,11.15
2023-01-11T15:18:17.910Z,9.93
2023-01-11T15:20:57.371Z,10.00
2023-01-11T15:23:25.133Z,7.10
2023-01-11T15:26:00.498Z,10.02
2023-01-11T15:28:49.381Z,9.13
2023-01-11T15:31:34.765Z,9.38
2023-01-11T15:34:23.422Z,8.98
2023-01-11T15:37:03.540Z,9.35
2023-01-11T15:39:57.077Z,13.55
2023-01-11T15:42:30.516Z,8.13
2023-01-11T15:45:19.208Z,8.50
2023-01-11T15:48:12.767Z,7.72
2023-01-11T15:50:58.348Z,7.55
2023-01-11T15:53:52.880Z,8.25
2023-01-11T15:56:44.406Z,8.63
2023-01-11T15:59:30.057Z,7.72
2023-01-11T16:02:18.619Z,7.38
2023-01-11T16:05:06.668Z,7.90
2023-01-11T16:08:15.533Z,7.50
2023-01-11T16:11:13.272Z,8.65
2023-01-11T16:14:04.612Z,7.22
2023-01-11T16:16:39.365Z,5.85
2023-01-11T16:19:26.239Z,7.88
2023-01-11T16:21:59.404Z,11.05
2023-01-11T16:24:29.698Z,8.35
2023-01-11T16:27:00.309Z,8.00
2023-01-11T16:29:37.510Z,8.60
2023-01-11T16:32:06.924Z,8.10
2023-01-11T16:34:42.059Z,11.27
2023-01-11T16:37:24.956Z,8.48
2023-01-11T16:39:57.491Z,8.07
2023-01-11T16:42:26.319Z,8.00
2023-01-11T16:44:58.401Z,9.15
2023-01-11T16:47:25.616Z,9.20
2023-01-11T16:50:11.504Z,8.50
2023-01-11T16:52:53.570Z,8.98
2023-01-11T16:55:30.928Z,8.23
2023-01-11T16:58:01.205Z,9.27
2023-01-11T17:00:36.113Z,8.98
2023-01-11T17:03:17.466Z,8.55
2023-01-11T17:06:09.339Z,9.73
2023-01-11T17:08:39.118Z,11.15
2023-01-11T17:11:13.999Z,8.70
2023-01-11T17:13:58.455Z,8.85
2023-01-11T17:16:32.182Z,8.63
2023-01-11T17:19:01.939Z,7.78
2023-01-11T17:21:30.527Z,9.35
2023-01-11T17:24:02.966Z,9.18
2023-01-11T17:26:33.877Z,9.02
2023-01-11T17:29:00.933Z,9.00
2023-01-11T17:31:32.051Z,8.18
2023-01-11T17:34:31.561Z,8.90
2023-01-11T17:36:59.200Z,8.75
2023-01-11T17:39:31.695Z,8.93
2023-01-11T17:42:21.132Z,8.68
2023-01-11T17:45:11.022Z,9.60
2023-01-11T17:47:40.251Z,8.75
2023-01-11T17:50:28.835Z,9.32
2023-01-11T17:53:05.132Z,9.63
2023-01-11T17:55:36.493Z,8.88
2023-01-11T17:58:10.337Z,10.05
2023-01-11T18:00:37.902Z,10.00
2023-01-11T18:03:14.451Z,9.60
2023-01-11T18:05:42.067Z,9.45
2023-01-11T18:08:22.168Z,9.88
2023-01-11T18:10:54.722Z,10.10
2023-01-11T18:13:28.378Z,9.23
2023-01-11T18:15:55.909Z,11.15
2023-01-11T18:18:51.198Z,10.10
2023-01-11T18:21:40.517Z,11.15
2023-01-11T18:24:15.203Z,10.70
2023-01-11T18:26:50.347Z,11.65
2023-01-11T18:29:37.574Z,10.80
2023-01-11T18:32:06.276Z,11.20
2023-01-11T18:34:33.730Z,11.35
2023-01-11T18:37:02.949Z,11.98
2023-01-11T18:39:31.561Z,12.05
2023-01-11T18:42:12.511Z,12.43
2023-01-11T18:44:41.384Z,11.77
2023-01-11T18:47:20.857Z,12.13
2023-01-11T18:49:51.312Z,11.80
2023-01-11T18:52:21.957Z,12.27
2023-01-11T18:54:51.540Z,12.65
2023-01-11T18:57:19.599Z,11.57
2023-01-11T18:59:47.408Z,13.75
2023-01-11T19:02:29.211Z,13.00
2023-01-11T19:04:57.577Z,13.05
2023-01-11T19:07:26.548Z,13.38
2023-01-11T19:09:59.405Z,12.43
2023-01-11T19:12:28.187Z,13.68
2023-01-11T19:14:55.660Z,14.20
2023-01-11T19:17:25.740Z,13.75
2023-01-11T19:19:53.632Z,13.55
2023-01-11T19:22:23.407Z,14.15
2023-01-11T19:24:53.491Z,13.82
2023-01-11T19:27:21.375Z,13.45
2023-01-11T19:29:49.129Z,13.90
2023-01-11T19:32:19.075Z,13.68
2023-01-11T19:34:47.470Z,15.32
2023-01-11T19:37:15.145Z,15.35
2023-01-11T19:39:43.083Z,15.40
2023-01-11T19:42:10.457Z,14.88
2023-01-11T19:44:41.429Z,15.90
2023-01-11T19:47:12.975Z,12.43
2023-01-11T19:49:41.521Z,13.95
2023-01-11T19:52:13.579Z,14.15
2023-01-11T19:54:42.451Z,13.13
2023-01-11T19:57:14.762Z,15.18
2023-01-11T19:59:42.806Z,13.70
2023-01-11T20:02:14.306Z,12.70
2023-01-11T20:04:41.843Z,13.65
2023-01-11T20:07:10.706Z,11.90
2023-01-11T20:09:38.013Z,12.20
2023-01-11T20:12:06.518Z,11.95
2023-01-11T20:14:34.117Z,11.30
2023-01-11T20:17:01.583Z,10.65
2023-01-11T20:19:28.633Z,10.13
2023-01-11T20:21:56.348Z,11.00
2023-01-11T20:24:30.285Z,9.88
2023-01-11T20:26:59.581Z,8.82
2023-01-11T20:29:26.742Z,9.25
2023-01-11T20:31:53.739Z,8.43
2023-01-11T20:34:20.923Z,9.00
2023-01-11T20:36:48.994Z,8.80
2023-01-11T20:39:17.419Z,9.40
2023-01-11T20:41:47.926Z,8.48
2023-01-11T20:44:28.518Z,9.07
2023-01-11T20:46:56.681Z,8.65
2023-01-11T20:49:26.096Z,7.50
2023-01-11T20:51:53.250Z,8.05
2023-01-11T20:54:20.335Z,7.93
2023-01-11T20:56:47.487Z,8.13
2023-01-11T20:59:20.325Z,8.95
2023-01-11T21:01:48.509Z,9.00
2023-01-11T21:04:16.888Z,8.70
2023-01-11T21:06:45.511Z,8.60
2023-01-11T21:09:15.109Z,8.57
2023-01-11T21:11:42.373Z,7.45
2023-01-11T21:14:12.190Z,7.88
2023-01-11T21:16:44.131Z,8.98
2023-01-11T21:21:38.160Z,7.80
2023-01-11T21:24:06.080Z,9.40
2023-01-11T21:26:34.480Z,9.85
2023-01-11T21:29:03.822Z,10.20
2023-01-11T21:31:33.181Z,9.32
2023-01-11T21:34:00.269Z,9.25
2023-01-11T21:36:28.878Z,9.85
2023-01-11T21:38:56.909Z,9.88
2023-01-11T21:41:47.486Z,10.27
2023-01-11T21:44:15.447Z,10.82
2023-01-11T21:46:43.347Z,10.18
2023-01-11T21:49:13.050Z,10.20
2023-01-11T21:51:41.132Z,9.73
2023-01-11T21:54:13.024Z,10.30
2023-01-11T21:59:08.968Z,10.43
2023-01-11T22:01:36.081Z,10.88
2023-01-11T22:04:11.144Z,11.13
2023-01-11T22:06:43.118Z,11.32
2023-01-11T22:09:11.435Z,11.63
2023-01-11T22:11:38.925Z,11.40
2023-01-11T22:14:06.706Z,11.35
2023-01-11T22:16:34.703Z,12.15
2023-01-11T22:19:02.824Z,11.65
2023-01-11T22:21:29.677Z,12.65
2023-01-11T22:23:58.584Z,12.75
2023-01-11T22:26:26.841Z,12.70
2023-01-11T22:29:13.906Z,12.60
2023-01-11T22:32:01.158Z,13.20
2023-01-11T22:34:28.413Z,12.93
2023-01-11T22:36:55.636Z,12.80
2023-01-11T22:39:24.127Z,13.50
2023-01-11T22:41:51.361Z,13.13
2023-01-11T22:44:18.658Z,14.25
2023-01-11T22:46:45.707Z,12.52
2023-01-11T22:49:12.948Z,12.68
2023-01-11T22:51:41.673Z,13.05
2023-01-11T22:54:08.991Z,13.52
2023-01-11T22:56:35.888Z,13.75
2023-01-11T22:59:02.859Z,14.30
2023-01-11T23:01:37.665Z,14.48
2023-01-11T23:04:05.883Z,14.00
2023-01-11T23:06:37.884Z,15.13
2023-01-11T23:09:06.507Z,14.40
2023-01-11T23:11:55.522Z,15.00
2023-01-11T23:14:22.973Z,14.57
2023-01-11T23:16:50.672Z,15.52
2023-01-11T23:19:19.689Z,16.17
2023-01-11T23:21:47.545Z,17.27
2023-01-11T23:24:15.832Z,17.02
2023-01-11T23:26:42.962Z,15.75
2023-01-11T23:29:10.020Z,16.77
2023-01-11T23:31:36.985Z,17.35
2023-01-11T23:34:04.473Z,16.40
2023-01-11T23:36:39.164Z,16.30
2023-01-11T23:39:08.132Z,15.88
2023-01-11T23:41:54.151Z,15.98
2023-01-11T23:44:22.797Z,13.82
2023-01-11T23:47:09.161Z,15.23
2023-01-11T23:49:36.541Z,15.32
2023-01-11T23:52:03.642Z,16.48
2023-01-11T23:54:32.671Z,15.32
2023-01-11T23:57:00.948Z,15.45
2023-01-11T23:59:28.011Z,15.88
